Shekhupura, Pakistan
Current Conditions -  °F | °C
As of 5:55 PM on Friday 31 Oct 2014 (Local Time) from OPLA Reporting Station
Haze Haze  
Wind Chill: 77°   Ceiling: Unl
Heat Index: 78°   Visibility: 2.5mi
Dew Point: 50°   Wind: 5mph
Humidity: 39%   Direction: 300°WNW
Pressure: NA   Gusts: NA
Location:  31.72°N, 73.98°E
Report Text: OPLA 311255Z 30004KT 4000 HZ FEW100 SCT200 25/10 Q1014/A29.95NOSIG
Loading
Personal Weather Stations






























Interactive Weather Map New forecast layout! Learn more

10-Day Weather Forecast

Advertisements
Track Severe Weather on mobile